sensor_id;sensor_type;location;lat;lon;timestamp;pressure;altitude;pressure_sealevel;temperature;humidity
77311;BME280;66371;52.714;5.074;2023-10-09T00:00:06;102090.41;;;14.43;100.00
77311;BME280;66371;52.714;5.074;2023-10-09T00:03:00;102101.09;;;14.53;100.00
77311;BME280;66371;52.714;5.074;2023-10-09T00:05:30;102091.72;;;14.57;100.00
77311;BME280;66371;52.714;5.074;2023-10-09T00:08:04;102092.25;;;14.60;100.00
77311;BME280;66371;52.714;5.074;2023-10-09T00:10:30;102071.19;;;14.56;100.00
77311;BME280;66371;52.714;5.074;2023-10-09T00:13:15;102090.41;;;14.61;100.00
77311;BME280;66371;52.714;5.074;2023-10-09T00:15:41;102082.88;;;14.64;100.00
77311;BME280;66371;52.714;5.074;2023-10-09T00:18:07;102088.28;;;14.64;100.00
77311;BME280;66371;52.714;5.074;2023-10-09T00:20:37;102083.41;;;14.68;100.00
77311;BME280;66371;52.714;5.074;2023-10-09T00:23:09;102069.63;;;14.71;100.00
77311;BME280;66371;52.714;5.074;2023-10-09T00:25:48;102071.84;;;14.75;100.00
77311;BME280;66371;52.714;5.074;2023-10-09T00:28:30;102064.25;;;14.71;100.00
77311;BME280;66371;52.714;5.074;2023-10-09T00:30:55;102067.16;;;14.77;100.00
77311;BME280;66371;52.714;5.074;2023-10-09T00:33:20;102060.25;;;14.75;100.00
77311;BME280;66371;52.714;5.074;2023-10-09T00:35:48;102065.00;;;14.81;100.00
77311;BME280;66371;52.714;5.074;2023-10-09T00:38:19;102068.50;;;14.81;100.00
77311;BME280;66371;52.714;5.074;2023-10-09T00:40:45;102067.72;;;14.89;100.00
77311;BME280;66371;52.714;5.074;2023-10-09T00:43:21;102054.81;;;14.92;100.00
77311;BME280;66371;52.714;5.074;2023-10-09T00:45:53;102064.06;;;14.98;100.00
77311;BME280;66371;52.714;5.074;2023-10-09T00:48:19;102040.84;;;14.97;100.00
77311;BME280;66371;52.714;5.074;2023-10-09T00:50:57;102034.78;;;14.95;100.00
77311;BME280;66371;52.714;5.074;2023-10-09T00:53:27;102045.97;;;15.08;100.00
77311;BME280;66371;52.714;5.074;2023-10-09T00:55:59;102043.81;;;15.11;100.00
77311;BME280;66371;52.714;5.074;2023-10-09T00:58:37;102045.81;;;15.09;100.00
77311;BME280;66371;52.714;5.074;2023-10-09T01:03:37;102030.69;;;15.16;100.00
77311;BME280;66371;52.714;5.074;2023-10-09T01:06:05;102032.75;;;15.22;100.00
77311;BME280;66371;52.714;5.074;2023-10-09T01:08:39;102024.50;;;15.24;100.00
77311;BME280;66371;52.714;5.074;2023-10-09T01:11:13;102025.50;;;15.23;100.00
77311;BME280;66371;52.714;5.074;2023-10-09T01:13:47;102020.81;;;15.33;100.00
77311;BME280;66371;52.714;5.074;2023-10-09T01:16:17;102031.16;;;15.37;100.00
77311;BME280;66371;52.714;5.074;2023-10-09T01:18:48;102022.59;;;15.42;100.00
77311;BME280;66371;52.714;5.074;2023-10-09T01:21:17;102012.84;;;15.49;100.00
77311;BME280;66371;52.714;5.074;2023-10-09T01:23:45;102024.31;;;15.59;100.00
77311;BME280;66371;52.714;5.074;2023-10-09T01:27:01;102014.06;;;15.62;100.00
77311;BME280;66371;52.714;5.074;2023-10-09T01:29:23;102017.94;;;15.68;100.00
77311;BME280;66371;52.714;5.074;2023-10-09T01:31:54;101995.03;;;15.64;100.00
77311;BME280;66371;52.714;5.074;2023-10-09T01:34:32;102007.84;;;15.70;100.00
77311;BME280;66371;52.714;5.074;2023-10-09T01:37:08;102002.47;;;15.70;100.00
77311;BME280;66371;52.714;5.074;2023-10-09T01:39:55;101991.00;;;15.76;100.00
77311;BME280;66371;52.714;5.074;2023-10-09T01:42:24;102000.47;;;15.88;100.00
77311;BME280;66371;52.714;5.074;2023-10-09T01:44:56;101998.47;;;15.90;100.00
77311;BME280;66371;52.714;5.074;2023-10-09T01:47:23;101993.59;;;15.94;100.00
77311;BME280;66371;52.714;5.074;2023-10-09T01:49:51;101976.72;;;16.00;100.00
77311;BME280;66371;52.714;5.074;2023-10-09T01:52:18;101983.13;;;16.07;100.00
77311;BME280;66371;52.714;5.074;2023-10-09T01:54:47;101988.38;;;16.16;100.00
77311;BME280;66371;52.714;5.074;2023-10-09T01:57:17;101976.03;;;16.22;100.00
77311;BME280;66371;52.714;5.074;2023-10-09T01:59:48;101967.44;;;16.26;100.00
77311;BME280;66371;52.714;5.074;2023-10-09T02:02:17;101970.31;;;16.33;100.00
77311;BME280;66371;52.714;5.074;2023-10-09T02:04:53;101964.56;;;16.36;100.00
77311;BME280;66371;52.714;5.074;2023-10-09T02:07:20;101968.44;;;16.41;100.00
77311;BME280;66371;52.714;5.074;2023-10-09T02:09:53;101957.97;;;16.38;100.00
77311;BME280;66371;52.714;5.074;2023-10-09T02:12:19;101966.41;;;16.43;100.00
77311;BME280;66371;52.714;5.074;2023-10-09T02:14:47;101972.50;;;16.37;100.00
77311;BME280;66371;52.714;5.074;2023-10-09T02:17:12;101981.09;;;16.41;100.00
77311;BME280;66371;52.714;5.074;2023-10-09T02:19:44;101978.75;;;16.30;100.00
77311;BME280;66371;52.714;5.074;2023-10-09T02:22:13;101964.41;;;16.29;100.00
77311;BME280;66371;52.714;5.074;2023-10-09T02:24:43;101955.47;;;16.29;100.00
77311;BME280;66371;52.714;5.074;2023-10-09T02:27:35;101948.25;;;16.21;100.00
77311;BME280;66371;52.714;5.074;2023-10-09T02:30:19;101966.06;;;16.38;100.00
77311;BME280;66371;52.714;5.074;2023-10-09T02:32:53;101957.31;;;16.36;100.00
77311;BME280;66371;52.714;5.074;2023-10-09T02:35:24;101947.34;;;16.37;100.00
77311;BME280;66371;52.714;5.074;2023-10-09T02:38:03;101936.06;;;16.33;100.00
77311;BME280;66371;52.714;5.074;2023-10-09T02:40:34;101945.16;;;16.40;100.00
77311;BME280;66371;52.714;5.074;2023-10-09T02:43:27;101939.59;;;16.42;100.00
77311;BME280;66371;52.714;5.074;2023-10-09T02:45:53;101936.88;;;16.42;100.00
77311;BME280;66371;52.714;5.074;2023-10-09T02:48:18;101925.94;;;16.43;100.00
77311;BME280;66371;52.714;5.074;2023-10-09T02:50:51;101922.88;;;16.38;100.00
77311;BME280;66371;52.714;5.074;2023-10-09T02:53:17;101915.81;;;16.37;100.00
77311;BME280;66371;52.714;5.074;2023-10-09T02:55:54;101922.41;;;16.35;100.00
77311;BME280;66371;52.714;5.074;2023-10-09T02:58:30;101926.94;;;16.34;100.00
77311;BME280;66371;52.714;5.074;2023-10-09T03:00:58;101930.34;;;16.36;100.00
77311;BME280;66371;52.714;5.074;2023-10-09T03:03:24;101923.91;;;16.29;100.00
77311;BME280;66371;52.714;5.074;2023-10-09T03:05:50;101935.72;;;16.36;100.00
77311;BME280;66371;52.714;5.074;2023-10-09T03:08:16;101940.28;;;16.36;100.00
77311;BME280;66371;52.714;5.074;2023-10-09T03:10:44;101943.16;;;16.34;100.00
77311;BME280;66371;52.714;5.074;2023-10-09T03:13:09;101942.28;;;16.34;100.00
77311;BME280;66371;52.714;5.074;2023-10-09T03:15:35;101918.38;;;16.23;100.00
77311;BME280;66371;52.714;5.074;2023-10-09T03:18:04;101934.03;;;16.35;100.00
77311;BME280;66371;52.714;5.074;2023-10-09T03:20:30;101937.41;;;16.37;100.00
77311;BME280;66371;52.714;5.074;2023-10-09T03:22:56;101934.19;;;16.42;100.00
77311;BME280;66371;52.714;5.074;2023-10-09T03:25:23;101936.59;;;16.45;100.00
77311;BME280;66371;52.714;5.074;2023-10-09T03:27:50;101935.56;;;16.46;100.00
77311;BME280;66371;52.714;5.074;2023-10-09T03:30:17;101932.84;;;16.46;100.00
77311;BME280;66371;52.714;5.074;2023-10-09T03:32:52;101941.47;;;16.49;100.00
77311;BME280;66371;52.714;5.074;2023-10-09T03:35:18;101933.03;;;16.44;100.00
77311;BME280;66371;52.714;5.074;2023-10-09T03:37:54;101939.63;;;16.50;100.00
77311;BME280;66371;52.714;5.074;2023-10-09T03:40:23;101930.16;;;16.46;100.00
77311;BME280;66371;52.714;5.074;2023-10-09T03:42:49;101931.66;;;16.56;100.00
77311;BME280;66371;52.714;5.074;2023-10-09T03:45:14;101928.13;;;16.56;100.00
77311;BME280;66371;52.714;5.074;2023-10-09T03:47:56;101926.06;;;16.58;100.00
77311;BME280;66371;52.714;5.074;2023-10-09T03:50:34;101926.41;;;16.55;100.00
77311;BME280;66371;52.714;5.074;2023-10-09T03:53:05;101931.63;;;16.64;100.00
77311;BME280;66371;52.714;5.074;2023-10-09T03:55:36;101919.84;;;16.65;100.00
77311;BME280;66371;52.714;5.074;2023-10-09T03:58:05;101913.41;;;16.66;100.00
77311;BME280;66371;52.714;5.074;2023-10-09T04:00:32;101916.13;;;16.66;100.00
77311;BME280;66371;52.714;5.074;2023-10-09T04:03:06;101927.25;;;16.63;100.00
77311;BME280;66371;52.714;5.074;2023-10-09T04:05:31;101918.13;;;16.64;100.00
77311;BME280;66371;52.714;5.074;2023-10-09T04:07:57;101903.31;;;16.60;100.00
77311;BME280;66371;52.714;5.074;2023-10-09T04:10:24;101922.88;;;16.62;100.00
77311;BME280;66371;52.714;5.074;2023-10-09T04:13:19;101915.44;;;16.64;100.00
77311;BME280;66371;52.714;5.074;2023-10-09T04:15:49;101922.03;;;16.62;100.00
77311;BME280;66371;52.714;5.074;2023-10-09T04:18:15;101923.72;;;16.63;100.00
77311;BME280;66371;52.714;5.074;2023-10-09T04:20:44;101918.13;;;16.64;100.00
77311;BME280;66371;52.714;5.074;2023-10-09T04:23:28;101932.47;;;16.73;100.00
77311;BME280;66371;52.714;5.074;2023-10-09T04:26:12;101922.38;;;16.67;100.00
77311;BME280;66371;52.714;5.074;2023-10-09T04:28:39;101922.19;;;16.68;100.00
77311;BME280;66371;52.714;5.074;2023-10-09T04:31:07;101924.72;;;16.70;100.00
77311;BME280;66371;52.714;5.074;2023-10-09T04:33:32;101924.38;;;16.73;100.00
77311;BME280;66371;52.714;5.074;2023-10-09T04:36:01;101925.72;;;16.69;100.00
77311;BME280;66371;52.714;5.074;2023-10-09T04:38:52;101939.22;;;16.69;100.00
77311;BME280;66371;52.714;5.074;2023-10-09T04:41:27;101943.44;;;16.71;100.00
77311;BME280;66371;52.714;5.074;2023-10-09T04:43:55;101957.66;;;16.65;100.00
77311;BME280;66371;52.714;5.074;2023-10-09T04:46:30;101962.88;;;16.59;100.00
77311;BME280;66371;52.714;5.074;2023-10-09T04:49:09;101976.22;;;16.60;100.00
77311;BME280;66371;52.714;5.074;2023-10-09T04:51:52;101986.66;;;16.55;100.00
77311;BME280;66371;52.714;5.074;2023-10-09T04:54:32;101990.91;;;16.50;100.00
77311;BME280;66371;52.714;5.074;2023-10-09T04:57:27;101988.34;;;16.40;100.00
77311;BME280;66371;52.714;5.074;2023-10-09T04:59:52;101995.78;;;16.46;100.00
77311;BME280;66371;52.714;5.074;2023-10-09T05:02:19;101996.78;;;16.37;100.00
77311;BME280;66371;52.714;5.074;2023-10-09T05:04:46;102013.31;;;16.42;100.00
77311;BME280;66371;52.714;5.074;2023-10-09T05:07:16;102010.44;;;16.36;100.00
77311;BME280;66371;52.714;5.074;2023-10-09T05:09:49;102008.25;;;16.39;100.00
77311;BME280;66371;52.714;5.074;2023-10-09T05:12:21;101998.47;;;16.38;100.00
77311;BME280;66371;52.714;5.074;2023-10-09T05:14:51;102005.56;;;16.39;100.00
77311;BME280;66371;52.714;5.074;2023-10-09T05:17:34;101977.03;;;16.37;100.00
77311;BME280;66371;52.714;5.074;2023-10-09T05:20:02;101978.41;;;16.33;100.00
77311;BME280;66371;52.714;5.074;2023-10-09T05:22:45;101980.75;;;16.36;100.00
77311;BME280;66371;52.714;5.074;2023-10-09T05:25:23;101975.88;;;16.39;100.00
77311;BME280;66371;52.714;5.074;2023-10-09T05:28:04;101971.97;;;16.42;100.00
77311;BME280;66371;52.714;5.074;2023-10-09T05:30:50;101964.75;;;16.42;100.00
77311;BME280;66371;52.714;5.074;2023-10-09T05:33:20;101972.84;;;16.42;100.00
77311;BME280;66371;52.714;5.074;2023-10-09T05:35:55;101964.91;;;16.41;100.00
77311;BME280;66371;52.714;5.074;2023-10-09T05:38:39;101959.34;;;16.34;100.00
77311;BME280;66371;52.714;5.074;2023-10-09T05:41:12;101990.69;;;16.35;100.00
77311;BME280;66371;52.714;5.074;2023-10-09T05:43:56;101981.28;;;16.31;100.00
77311;BME280;66371;52.714;5.074;2023-10-09T05:46:40;101989.53;;;16.30;100.00
77311;BME280;66371;52.714;5.074;2023-10-09T05:49:25;101977.41;;;16.26;100.00
77311;BME280;66371;52.714;5.074;2023-10-09T05:52:11;101976.56;;;16.25;100.00
77311;BME280;66371;52.714;5.074;2023-10-09T05:54:55;101978.22;;;16.26;100.00
77311;BME280;66371;52.714;5.074;2023-10-09T05:57:39;101942.16;;;16.11;100.00
77311;BME280;66371;52.714;5.074;2023-10-09T06:00:23;101967.13;;;16.21;100.00
77311;BME280;66371;52.714;5.074;2023-10-09T06:03:07;101986.50;;;16.25;100.00
77311;BME280;66371;52.714;5.074;2023-10-09T06:05:52;101989.38;;;16.23;100.00
77311;BME280;66371;52.714;5.074;2023-10-09T06:08:28;101998.47;;;16.22;100.00
77311;BME280;66371;52.714;5.074;2023-10-09T06:11:14;101983.78;;;16.17;100.00
77311;BME280;66371;52.714;5.074;2023-10-09T06:13:59;101993.41;;;16.19;100.00
77311;BME280;66371;52.714;5.074;2023-10-09T06:16:31;101994.41;;;16.18;100.00
77311;BME280;66371;52.714;5.074;2023-10-09T06:19:25;102002.19;;;16.21;100.00
77311;BME280;66371;52.714;5.074;2023-10-09T06:22:00;101991.06;;;16.16;100.00
77311;BME280;66371;52.714;5.074;2023-10-09T06:24:30;101995.44;;;16.17;100.00
77311;BME280;66371;52.714;5.074;2023-10-09T06:27:11;101987.16;;;16.19;100.00
77311;BME280;66371;52.714;5.074;2023-10-09T06:29:41;101976.88;;;16.14;100.00
77311;BME280;66371;52.714;5.074;2023-10-09T06:32:11;101984.31;;;16.20;100.00
77311;BME280;66371;52.714;5.074;2023-10-09T06:34:58;101978.91;;;16.20;100.00
77311;BME280;66371;52.714;5.074;2023-10-09T06:37:48;101978.91;;;16.20;100.00
77311;BME280;66371;52.714;5.074;2023-10-09T06:40:38;101965.59;;;16.19;100.00
77311;BME280;66371;52.714;5.074;2023-10-09T06:43:24;101971.84;;;16.19;100.00
77311;BME280;66371;52.714;5.074;2023-10-09T06:45:56;101972.69;;;16.20;100.00
77311;BME280;66371;52.714;5.074;2023-10-09T06:48:41;101978.09;;;16.20;100.00
77311;BME280;66371;52.714;5.074;2023-10-09T06:51:13;101967.94;;;16.22;100.00
77311;BME280;66371;52.714;5.074;2023-10-09T06:53:54;101977.56;;;16.24;100.00
77311;BME280;66371;52.714;5.074;2023-10-09T06:58:55;101957.16;;;16.22;100.00
77311;BME280;66371;52.714;5.074;2023-10-09T07:01:23;101961.69;;;16.29;100.00
77311;BME280;66371;52.714;5.074;2023-10-09T07:04:08;101945.34;;;16.31;100.00
77311;BME280;66371;52.714;5.074;2023-10-09T07:07:06;101950.22;;;16.35;100.00
77311;BME280;66371;52.714;5.074;2023-10-09T07:09:38;101945.34;;;16.39;100.00
77311;BME280;66371;52.714;5.074;2023-10-09T07:12:31;101956.63;;;16.42;100.00
77311;BME280;66371;52.714;5.074;2023-10-09T07:14:59;101919.72;;;16.35;100.00
77311;BME280;66371;52.714;5.074;2023-10-09T07:17:46;101926.28;;;16.40;100.00
77311;BME280;66371;52.714;5.074;2023-10-09T07:20:11;101935.72;;;16.36;100.00
77311;BME280;66371;52.714;5.074;2023-10-09T07:22:55;101931.03;;;16.30;100.00
77311;BME280;66371;52.714;5.074;2023-10-09T07:25:28;101965.59;;;16.35;100.00
77311;BME280;66371;52.714;5.074;2023-10-09T07:28:08;101980.59;;;16.37;100.00
77311;BME280;66371;52.714;5.074;2023-10-09T07:30:46;101967.78;;;16.39;100.00
77311;BME280;66371;52.714;5.074;2023-10-09T07:33:12;101961.91;;;16.44;100.00
77311;BME280;66371;52.714;5.074;2023-10-09T07:35:42;101948.22;;;16.45;100.00
77311;BME280;66371;52.714;5.074;2023-10-09T07:38:13;101954.09;;;16.57;100.00
77311;BME280;66371;52.714;5.074;2023-10-09T07:40:40;101970.81;;;16.60;100.00
77311;BME280;66371;52.714;5.074;2023-10-09T07:43:22;101992.91;;;16.64;100.00
77311;BME280;66371;52.714;5.074;2023-10-09T07:45:53;101989.19;;;16.65;100.00
77311;BME280;66371;52.714;5.074;2023-10-09T07:48:25;101988.69;;;16.69;100.00
77311;BME280;66371;52.714;5.074;2023-10-09T07:50:51;102005.88;;;16.76;100.00
77311;BME280;66371;52.714;5.074;2023-10-09T07:53:25;102020.72;;;16.80;100.00
77311;BME280;66371;52.714;5.074;2023-10-09T07:55:54;102032.53;;;16.87;100.00
77311;BME280;66371;52.714;5.074;2023-10-09T07:58:21;102037.91;;;16.87;100.00
77311;BME280;66371;52.714;5.074;2023-10-09T08:00:54;102046.38;;;16.84;100.00
77311;BME280;66371;52.714;5.074;2023-10-09T08:03:26;102055.31;;;16.85;100.00
77311;BME280;66371;52.714;5.074;2023-10-09T08:05:57;102062.91;;;16.89;100.00
77311;BME280;66371;52.714;5.074;2023-10-09T08:08:33;102065.91;;;16.94;100.00
77311;BME280;66371;52.714;5.074;2023-10-09T08:10:58;102062.38;;;17.02;100.00
77311;BME280;66371;52.714;5.074;2023-10-09T08:13:44;102068.94;;;17.07;100.00
77311;BME280;66371;52.714;5.074;2023-10-09T08:16:30;102076.72;;;17.10;100.00
77311;BME280;66371;52.714;5.074;2023-10-09T08:19:06;102078.03;;;17.14;100.00
77311;BME280;66371;52.714;5.074;2023-10-09T08:21:54;102073.81;;;17.20;100.00
77311;BME280;66371;52.714;5.074;2023-10-09T08:24:38;102080.72;;;17.22;100.00
77311;BME280;66371;52.714;5.074;2023-10-09T08:27:07;102074.81;;;17.27;100.00
77311;BME280;66371;52.714;5.074;2023-10-09T08:29:51;102079.53;;;17.25;100.00
77311;BME280;66371;52.714;5.074;2023-10-09T08:32:37;102093.38;;;17.30;100.00
77311;BME280;66371;52.714;5.074;2023-10-09T08:35:08;102101.66;;;17.28;100.00
77311;BME280;66371;52.714;5.074;2023-10-09T08:37:54;102103.34;;;17.29;100.00
77311;BME280;66371;52.714;5.074;2023-10-09T08:40:36;102099.63;;;17.30;100.00
77311;BME280;66371;52.714;5.074;2023-10-09T08:43:25;102090.84;;;17.28;100.00
77311;BME280;66371;52.714;5.074;2023-10-09T08:45:56;102090.50;;;17.31;100.00
77311;BME280;66371;52.714;5.074;2023-10-09T08:48:26;102081.00;;;17.35;100.00
77311;BME280;66371;52.714;5.074;2023-10-09T08:50:53;102069.19;;;17.36;100.00
77311;BME280;66371;52.714;5.074;2023-10-09T08:53:23;102086.94;;;17.47;100.00
77311;BME280;66371;52.714;5.074;2023-10-09T08:55:57;102080.31;;;17.49;100.00
77311;BME280;66371;52.714;5.074;2023-10-09T08:58:24;102092.16;;;17.57;100.00
77311;BME280;66371;52.714;5.074;2023-10-09T09:00:51;102091.25;;;17.64;100.00
77311;BME280;66371;52.714;5.074;2023-10-09T09:03:19;102090.38;;;17.72;100.00
77311;BME280;66371;52.714;5.074;2023-10-09T09:05:56;102087.81;;;17.78;100.00
77311;BME280;66371;52.714;5.074;2023-10-09T09:08:23;102086.63;;;17.81;100.00
77311;BME280;66371;52.714;5.074;2023-10-09T09:11:00;102089.94;;;17.91;100.00
77311;BME280;66371;52.714;5.074;2023-10-09T09:13:48;102077.78;;;17.87;100.00
77311;BME280;66371;52.714;5.074;2023-10-09T09:16:24;102081.81;;;17.91;100.00
77311;BME280;66371;52.714;5.074;2023-10-09T09:19:00;102087.91;;;17.93;100.00
77311;BME280;66371;52.714;5.074;2023-10-09T09:21:30;102074.91;;;17.88;100.00
77311;BME280;66371;52.714;5.074;2023-10-09T09:24:02;102087.22;;;17.91;100.00
77311;BME280;66371;52.714;5.074;2023-10-09T09:26:38;102092.47;;;17.92;100.00
77311;BME280;66371;52.714;5.074;2023-10-09T09:29:10;102081.00;;;17.90;100.00
77311;BME280;66371;52.714;5.074;2023-10-09T09:31:36;102090.59;;;17.93;100.00
77311;BME280;66371;52.714;5.074;2023-10-09T09:34:08;102077.75;;;17.95;100.00
77311;BME280;66371;52.714;5.074;2023-10-09T09:36:56;102077.75;;;17.95;100.00
77311;BME280;66371;52.714;5.074;2023-10-09T09:39:25;102082.44;;;18.01;100.00
77311;BME280;66371;52.714;5.074;2023-10-09T09:41:58;102057.81;;;17.88;100.00
77311;BME280;66371;52.714;5.074;2023-10-09T09:44:33;102071.72;;;18.07;100.00
77311;BME280;66371;52.714;5.074;2023-10-09T09:47:09;102076.00;;;18.02;100.00
77311;BME280;66371;52.714;5.074;2023-10-09T09:49:41;102083.59;;;18.06;100.00
77311;BME280;66371;52.714;5.074;2023-10-09T09:52:06;102079.94;;;17.99;100.00
77311;BME280;66371;52.714;5.074;2023-10-09T09:54:38;102091.16;;;18.11;100.00
77311;BME280;66371;52.714;5.074;2023-10-09T09:57:05;102094.56;;;18.13;100.00
77311;BME280;66371;52.714;5.074;2023-10-09T09:59:38;102091.84;;;18.13;100.00
77311;BME280;66371;52.714;5.074;2023-10-09T10:02:22;102088.47;;;18.11;100.00
77311;BME280;66371;52.714;5.074;2023-10-09T10:04:54;102106.66;;;18.25;100.00
77311;BME280;66371;52.714;5.074;2023-10-09T10:07:23;102101.22;;;18.25;100.00
77311;BME280;66371;52.714;5.074;2023-10-09T10:09:50;102098.34;;;18.26;100.00
77311;BME280;66371;52.714;5.074;2023-10-09T10:15:13;102100.69;;;18.37;100.00
77311;BME280;66371;52.714;5.074;2023-10-09T10:20:25;102109.78;;;18.36;100.00
77311;BME280;66371;52.714;5.074;2023-10-09T10:23:11;102100.50;;;18.31;100.00
77311;BME280;66371;52.714;5.074;2023-10-09T10:25:42;102090.91;;;18.28;100.00
77311;BME280;66371;52.714;5.074;2023-10-09T10:28:18;102093.88;;;18.33;100.00
77311;BME280;66371;52.714;5.074;2023-10-09T10:31:01;102086.66;;;18.26;100.00
77311;BME280;66371;52.714;5.074;2023-10-09T10:36:26;102088.38;;;18.27;100.00
77311;BME280;66371;52.714;5.074;2023-10-09T10:39:02;102095.47;;;18.28;100.00
77311;BME280;66371;52.714;5.074;2023-10-09T10:41:32;102089.09;;;18.21;100.00
77311;BME280;66371;52.714;5.074;2023-10-09T10:44:02;102103.75;;;18.26;100.00
77311;BME280;66371;52.714;5.074;2023-10-09T10:46:46;102114.44;;;18.20;100.00
77311;BME280;66371;52.714;5.074;2023-10-09T10:49:17;102113.84;;;18.10;100.00
77311;BME280;66371;52.714;5.074;2023-10-09T10:51:48;102117.09;;;18.05;100.00
77311;BME280;66371;52.714;5.074;2023-10-09T10:54:24;102121.13;;;18.09;100.00
77311;BME280;66371;52.714;5.074;2023-10-09T10:56:59;102127.50;;;18.16;100.00
77311;BME280;66371;52.714;5.074;2023-10-09T10:59:30;102110.84;;;18.05;100.00
77311;BME280;66371;52.714;5.074;2023-10-09T11:01:59;102130.38;;;18.15;100.00
77311;BME280;66371;52.714;5.074;2023-10-09T11:04:26;102128.34;;;18.17;100.00
77311;BME280;66371;52.714;5.074;2023-10-09T11:06:55;102124.75;;;18.24;100.00
77311;BME280;66371;52.714;5.074;2023-10-09T11:12:46;102116.41;;;18.34;100.00
77311;BME280;66371;52.714;5.074;2023-10-09T11:15:29;102103.09;;;18.24;100.00
77311;BME280;66371;52.714;5.074;2023-10-09T11:18:11;102122.50;;;18.36;100.00
77311;BME280;66371;52.714;5.074;2023-10-09T11:20:57;102128.72;;;18.36;100.00
77311;BME280;66371;52.714;5.074;2023-10-09T11:23:30;102146.91;;;18.28;100.00
77311;BME280;66371;52.714;5.074;2023-10-09T11:25:59;102142.38;;;18.20;100.00
77311;BME280;66371;52.714;5.074;2023-10-09T11:28:43;102131.41;;;18.14;100.00
77311;BME280;66371;52.714;5.074;2023-10-09T11:31:15;102142.56;;;18.19;100.00
77311;BME280;66371;52.714;5.074;2023-10-09T11:33:44;102132.44;;;18.13;100.00
77311;BME280;66371;52.714;5.074;2023-10-09T11:36:09;102113.84;;;18.10;100.00
77311;BME280;66371;52.714;5.074;2023-10-09T11:38:36;102105.72;;;18.10;100.00
77311;BME280;66371;52.714;5.074;2023-10-09T11:41:11;102116.84;;;18.15;100.00
77311;BME280;66371;52.714;5.074;2023-10-09T11:43:51;102118.09;;;18.04;100.00
77311;BME280;66371;52.714;5.074;2023-10-09T11:46:20;102131.00;;;17.94;100.00
77311;BME280;66371;52.714;5.074;2023-10-09T11:49:09;102133.28;;;17.83;100.00
77311;BME280;66371;52.714;5.074;2023-10-09T11:51:47;102127.16;;;17.89;100.00
77311;BME280;66371;52.714;5.074;2023-10-09T11:54:34;102120.44;;;17.77;100.00
77311;BME280;66371;52.714;5.074;2023-10-09T11:57:00;102129.91;;;17.81;100.00
77311;BME280;66371;52.714;5.074;2023-10-09T11:59:33;102116.22;;;17.74;100.00
77311;BME280;66371;52.714;5.074;2023-10-09T12:02:05;102138.19;;;17.79;100.00
77311;BME280;66371;52.714;5.074;2023-10-09T12:04:30;102128.72;;;17.75;100.00
77311;BME280;66371;52.714;5.074;2023-10-09T12:06:59;102125.38;;;17.73;100.00
77311;BME280;66371;52.714;5.074;2023-10-09T12:09:34;102119.81;;;17.67;100.00
77311;BME280;66371;52.714;5.074;2023-10-09T12:12:03;102124.19;;;17.68;100.00
77311;BME280;66371;52.714;5.074;2023-10-09T12:14:29;102129.56;;;17.76;100.00
77311;BME280;66371;52.714;5.074;2023-10-09T12:16:59;102125.69;;;17.78;100.00
77311;BME280;66371;52.714;5.074;2023-10-09T12:19:34;102126.34;;;17.80;100.00
77311;BME280;66371;52.714;5.074;2023-10-09T12:22:04;102121.44;;;17.84;100.00
77311;BME280;66371;52.714;5.074;2023-10-09T12:24:31;102123.06;;;17.93;100.00
77311;BME280;66371;52.714;5.074;2023-10-09T12:26:58;102093.66;;;17.90;100.00
77311;BME280;66371;52.714;5.074;2023-10-09T12:29:24;102111.16;;;18.10;100.00
77311;BME280;66371;52.714;5.074;2023-10-09T12:31:54;102113.97;;;18.16;100.00
77311;BME280;66371;52.714;5.074;2023-10-09T12:34:24;102114.44;;;18.20;100.00
77311;BME280;66371;52.714;5.074;2023-10-09T12:36:54;102116.16;;;18.21;100.00
77311;BME280;66371;52.714;5.074;2023-10-09T12:39:21;102113.38;;;18.29;100.00
77311;BME280;66371;52.714;5.074;2023-10-09T12:41:47;102111.59;;;18.44;100.00
77311;BME280;66371;52.714;5.074;2023-10-09T12:44:14;102105.84;;;18.47;100.00
77311;BME280;66371;52.714;5.074;2023-10-09T12:46:44;102104.66;;;18.49;100.00
77311;BME280;66371;52.714;5.074;2023-10-09T12:49:20;102104.09;;;18.54;100.00
77311;BME280;66371;52.714;5.074;2023-10-09T12:51:53;102085.72;;;18.64;100.00
77311;BME280;66371;52.714;5.074;2023-10-09T12:54:18;102087.69;;;18.70;100.00
77311;BME280;66371;52.714;5.074;2023-10-09T12:56:52;102076.59;;;18.65;100.00
77311;BME280;66371;52.714;5.074;2023-10-09T12:59:18;102085.78;;;18.78;100.00
77311;BME280;66371;52.714;5.074;2023-10-09T13:01:45;102082.16;;;19.00;100.00
77311;BME280;66371;52.714;5.074;2023-10-09T13:04:14;102066.16;;;18.91;100.00
77311;BME280;66371;52.714;5.074;2023-10-09T13:06:43;102097.59;;;19.00;100.00
77311;BME280;66371;52.714;5.074;2023-10-09T13:09:16;102098.78;;;18.97;100.00
77311;BME280;66371;52.714;5.074;2023-10-09T13:11:50;102077.59;;;19.01;100.00
77311;BME280;66371;52.714;5.074;2023-10-09T13:14:16;102082.09;;;19.08;100.00
77311;BME280;66371;52.714;5.074;2023-10-09T13:16:47;102082.44;;;19.20;100.00
77311;BME280;66371;52.714;5.074;2023-10-09T13:19:15;102088.63;;;19.14;100.00
77311;BME280;66371;52.714;5.074;2023-10-09T13:21:42;102077.78;;;19.14;100.00
77311;BME280;66371;52.714;5.074;2023-10-09T13:24:09;102062.63;;;18.90;100.00
77311;BME280;66371;52.714;5.074;2023-10-09T13:26:49;102083.94;;;18.93;100.00
77311;BME280;66371;52.714;5.074;2023-10-09T13:29:17;102090.28;;;18.86;100.00